KCSG

Columbus Airport

Columbus, Georgia, USA
METAR KCSG 180810Z AUTO 00000KT 1 3/4SM BR OVC003 14/13 A3014 RMK AO2 T01390133 $
Observed Flight Rules
Dec-18 @ 08:10 UTC (38 minutes ago) Instrument Flight Rules
Wind Visibility Clouds Conditions
Calm 1 3/4 miles
  • Overcast at 300' AGL
  • Mist
Temperatures Readings
Current 14°C / 57°F
Dewpoint 13°C / 55°F
Humidity 94%
Altimeter 30.14" Hg
Pressure 1021 hPa
Elevation 135
METAR KCSG 180810Z AUTO 00000KT 1 3/4SM BR OVC003 14/13 A3014 RMK AO2 T01390133 $
Observed Flight Rules
Dec-18 @ 08:10 UTC
(38 minutes ago)
LIFR
Wind Visibility
Calm 1 3/4 miles
Clouds
  • Overcast at 300' AGL
Conditions
  • Mist
Temperature Dewpoint
14°C / 57°F 13°C / 55°F
Humidity Altimeter Pressure
94% 30.14" Hg 1021 hPa